Terminal Aerodrome Forecast
Issued by NWS

Home | Current Version | Previous Version | Text Only | Print | Product List | Glossary On
Versions: 1 2 3 4 5 6 7 8 9 10 11 12 13 14 15 16 17 18 19 20 21 22
159
FTUS43 KEAX 261403 AAB
TAFMKC
TAF AMD
KMKC 261403Z 2614/2712 13009KT P6SM VCTS BKN035CB
      TEMPO 2614/2615 VRB20G45KT 1SM +TSRAGR BKN015CB
     FM261600 15011KT P6SM BKN040
     FM262300 14009KT P6SM VCTS BKN030CB
     FM270100 16011KT 4SM TSRA BKN025CB
     FM270900 12010KT P6SM VCTS BKN035CB=

USA.gov is the U.S. government's official web portal to all federal, state and local government web resources and services.